sensor_id;sensor_type;location;lat;lon;timestamp;P1;durP1;ratioP1;P2;durP2;ratioP2
7703;SDS011;3894;49.700;10.770;2023-04-03T00:02:06;2.65;;;0.80;;
7703;SDS011;3894;49.700;10.770;2023-04-03T00:04:32;3.15;;;0.70;;
7703;SDS011;3894;49.700;10.770;2023-04-03T00:06:58;3.03;;;0.95;;
7703;SDS011;3894;49.700;10.770;2023-04-03T00:09:24;3.88;;;0.82;;
7703;SDS011;3894;49.700;10.770;2023-04-03T00:11:50;3.10;;;1.13;;
7703;SDS011;3894;49.700;10.770;2023-04-03T00:14:15;2.72;;;0.65;;
7703;SDS011;3894;49.700;10.770;2023-04-03T00:16:41;3.75;;;0.98;;
7703;SDS011;3894;49.700;10.770;2023-04-03T00:19:07;4.03;;;1.10;;
7703;SDS011;3894;49.700;10.770;2023-04-03T00:21:33;3.38;;;0.70;;
7703;SDS011;3894;49.700;10.770;2023-04-03T00:23:58;3.60;;;0.77;;
7703;SDS011;3894;49.700;10.770;2023-04-03T00:26:31;4.00;;;1.17;;
7703;SDS011;3894;49.700;10.770;2023-04-03T00:29:05;3.00;;;1.42;;
7703;SDS011;3894;49.700;10.770;2023-04-03T00:31:30;3.42;;;1.20;;
7703;SDS011;3894;49.700;10.770;2023-04-03T00:33:56;4.95;;;1.02;;
7703;SDS011;3894;49.700;10.770;2023-04-03T00:36:21;2.95;;;0.77;;
7703;SDS011;3894;49.700;10.770;2023-04-03T00:38:47;2.92;;;0.60;;
7703;SDS011;3894;49.700;10.770;2023-04-03T00:41:12;3.60;;;1.00;;
7703;SDS011;3894;49.700;10.770;2023-04-03T00:43:38;3.33;;;0.85;;
7703;SDS011;3894;49.700;10.770;2023-04-03T00:46:04;4.40;;;0.80;;
7703;SDS011;3894;49.700;10.770;2023-04-03T00:48:36;4.28;;;0.90;;
7703;SDS011;3894;49.700;10.770;2023-04-03T00:51:06;2.15;;;0.60;;
7703;SDS011;3894;49.700;10.770;2023-04-03T00:53:47;3.75;;;0.75;;
7703;SDS011;3894;49.700;10.770;2023-04-03T00:56:17;3.55;;;0.70;;
7703;SDS011;3894;49.700;10.770;2023-04-03T00:58:48;3.65;;;1.25;;
7703;SDS011;3894;49.700;10.770;2023-04-03T01:01:25;3.97;;;0.88;;
7703;SDS011;3894;49.700;10.770;2023-04-03T01:03:53;4.20;;;0.90;;
7703;SDS011;3894;49.700;10.770;2023-04-03T01:06:20;4.65;;;1.08;;
7703;SDS011;3894;49.700;10.770;2023-04-03T01:08:51;4.25;;;1.23;;
7703;SDS011;3894;49.700;10.770;2023-04-03T01:11:17;5.60;;;0.70;;
7703;SDS011;3894;49.700;10.770;2023-04-03T01:13:42;4.00;;;0.90;;
7703;SDS011;3894;49.700;10.770;2023-04-03T01:16:08;4.88;;;1.10;;
7703;SDS011;3894;49.700;10.770;2023-04-03T01:18:43;4.35;;;1.00;;
7703;SDS011;3894;49.700;10.770;2023-04-03T01:27:05;5.05;;;1.48;;
7703;SDS011;3894;49.700;10.770;2023-04-03T01:29:33;4.75;;;1.05;;
7703;SDS011;3894;49.700;10.770;2023-04-03T01:31:59;4.65;;;0.70;;
7703;SDS011;3894;49.700;10.770;2023-04-03T01:34:26;3.45;;;0.60;;
7703;SDS011;3894;49.700;10.770;2023-04-03T01:36:53;3.30;;;0.80;;
7703;SDS011;3894;49.700;10.770;2023-04-03T01:39:19;4.28;;;0.95;;
7703;SDS011;3894;49.700;10.770;2023-04-03T01:41:44;3.10;;;0.80;;
7703;SDS011;3894;49.700;10.770;2023-04-03T01:44:10;3.17;;;0.80;;
7703;SDS011;3894;49.700;10.770;2023-04-03T01:46:36;3.00;;;0.88;;
7703;SDS011;3894;49.700;10.770;2023-04-03T01:49:02;3.83;;;1.10;;
7703;SDS011;3894;49.700;10.770;2023-04-03T01:51:28;4.18;;;1.30;;
7703;SDS011;3894;49.700;10.770;2023-04-03T01:53:55;5.38;;;1.15;;
7703;SDS011;3894;49.700;10.770;2023-04-03T01:56:20;4.25;;;1.05;;
7703;SDS011;3894;49.700;10.770;2023-04-03T01:58:46;3.85;;;0.75;;
7703;SDS011;3894;49.700;10.770;2023-04-03T02:01:12;4.22;;;1.27;;
7703;SDS011;3894;49.700;10.770;2023-04-03T02:03:40;4.50;;;1.08;;
7703;SDS011;3894;49.700;10.770;2023-04-03T02:06:09;2.70;;;0.63;;
7703;SDS011;3894;49.700;10.770;2023-04-03T02:08:35;3.78;;;1.08;;
7703;SDS011;3894;49.700;10.770;2023-04-03T02:11:00;4.05;;;1.08;;
7703;SDS011;3894;49.700;10.770;2023-04-03T02:13:29;3.35;;;0.77;;
7703;SDS011;3894;49.700;10.770;2023-04-03T02:15:54;4.50;;;1.08;;
7703;SDS011;3894;49.700;10.770;2023-04-03T02:18:20;3.33;;;0.90;;
7703;SDS011;3894;49.700;10.770;2023-04-03T02:20:46;4.10;;;0.88;;
7703;SDS011;3894;49.700;10.770;2023-04-03T02:23:11;6.35;;;1.33;;
7703;SDS011;3894;49.700;10.770;2023-04-03T02:25:37;4.60;;;1.20;;
7703;SDS011;3894;49.700;10.770;2023-04-03T02:28:03;7.53;;;1.45;;
7703;SDS011;3894;49.700;10.770;2023-04-03T02:30:31;4.15;;;1.00;;
7703;SDS011;3894;49.700;10.770;2023-04-03T02:32:56;3.35;;;1.00;;
7703;SDS011;3894;49.700;10.770;2023-04-03T02:35:22;6.22;;;1.27;;
7703;SDS011;3894;49.700;10.770;2023-04-03T02:37:48;4.00;;;1.27;;
7703;SDS011;3894;49.700;10.770;2023-04-03T02:40:13;5.70;;;1.35;;
7703;SDS011;3894;49.700;10.770;2023-04-03T02:42:39;5.15;;;1.33;;
7703;SDS011;3894;49.700;10.770;2023-04-03T02:45:05;4.32;;;1.30;;
7703;SDS011;3894;49.700;10.770;2023-04-03T02:47:31;5.05;;;0.93;;
7703;SDS011;3894;49.700;10.770;2023-04-03T02:49:56;5.18;;;1.77;;
7703;SDS011;3894;49.700;10.770;2023-04-03T02:52:22;4.28;;;1.13;;
7703;SDS011;3894;49.700;10.770;2023-04-03T02:54:48;4.13;;;1.55;;
7703;SDS011;3894;49.700;10.770;2023-04-03T02:57:13;5.53;;;0.90;;
7703;SDS011;3894;49.700;10.770;2023-04-03T02:59:39;5.45;;;1.88;;
7703;SDS011;3894;49.700;10.770;2023-04-03T03:02:06;5.07;;;1.13;;
7703;SDS011;3894;49.700;10.770;2023-04-03T03:04:35;5.95;;;1.40;;
7703;SDS011;3894;49.700;10.770;2023-04-03T03:07:01;4.70;;;1.60;;
7703;SDS011;3894;49.700;10.770;2023-04-03T03:09:26;4.97;;;1.60;;
7703;SDS011;3894;49.700;10.770;2023-04-03T03:11:52;3.70;;;1.23;;
7703;SDS011;3894;49.700;10.770;2023-04-03T03:14:21;4.75;;;1.58;;
7703;SDS011;3894;49.700;10.770;2023-04-03T03:16:47;4.57;;;1.70;;
7703;SDS011;3894;49.700;10.770;2023-04-03T03:19:12;5.55;;;1.60;;
7703;SDS011;3894;49.700;10.770;2023-04-03T03:21:38;5.32;;;1.92;;
7703;SDS011;3894;49.700;10.770;2023-04-03T03:24:04;5.47;;;1.50;;
7703;SDS011;3894;49.700;10.770;2023-04-03T03:26:32;4.95;;;1.67;;
7703;SDS011;3894;49.700;10.770;2023-04-03T03:28:58;5.32;;;1.70;;
7703;SDS011;3894;49.700;10.770;2023-04-03T03:31:24;5.20;;;1.65;;
7703;SDS011;3894;49.700;10.770;2023-04-03T03:33:49;6.13;;;1.33;;
7703;SDS011;3894;49.700;10.770;2023-04-03T03:36:15;5.40;;;1.92;;
7703;SDS011;3894;49.700;10.770;2023-04-03T03:38:41;4.20;;;1.58;;
7703;SDS011;3894;49.700;10.770;2023-04-03T03:41:06;5.53;;;1.55;;
7703;SDS011;3894;49.700;10.770;2023-04-03T03:43:32;5.40;;;1.50;;
7703;SDS011;3894;49.700;10.770;2023-04-03T03:45:57;5.22;;;1.33;;
7703;SDS011;3894;49.700;10.770;2023-04-03T03:48:23;4.20;;;1.42;;
7703;SDS011;3894;49.700;10.770;2023-04-03T03:50:49;5.57;;;2.33;;
7703;SDS011;3894;49.700;10.770;2023-04-03T03:53:15;5.57;;;2.28;;
7703;SDS011;3894;49.700;10.770;2023-04-03T03:55:41;6.53;;;2.25;;
7703;SDS011;3894;49.700;10.770;2023-04-03T03:58:06;5.40;;;1.70;;
7703;SDS011;3894;49.700;10.770;2023-04-03T04:00:32;7.78;;;2.65;;
7703;SDS011;3894;49.700;10.770;2023-04-03T04:02:58;9.98;;;3.85;;
7703;SDS011;3894;49.700;10.770;2023-04-03T04:05:23;7.55;;;2.65;;
7703;SDS011;3894;49.700;10.770;2023-04-03T04:07:52;6.70;;;2.13;;
7703;SDS011;3894;49.700;10.770;2023-04-03T04:10:17;6.85;;;1.75;;
7703;SDS011;3894;49.700;10.770;2023-04-03T04:12:43;5.10;;;2.05;;
7703;SDS011;3894;49.700;10.770;2023-04-03T04:15:09;5.03;;;2.00;;
7703;SDS011;3894;49.700;10.770;2023-04-03T04:17:37;6.45;;;2.22;;
7703;SDS011;3894;49.700;10.770;2023-04-03T04:20:03;5.32;;;2.88;;
7703;SDS011;3894;49.700;10.770;2023-04-03T04:22:29;5.93;;;1.80;;
7703;SDS011;3894;49.700;10.770;2023-04-03T04:25:03;4.70;;;1.75;;
7703;SDS011;3894;49.700;10.770;2023-04-03T04:27:30;4.60;;;1.98;;
7703;SDS011;3894;49.700;10.770;2023-04-03T04:29:55;7.35;;;1.58;;
7703;SDS011;3894;49.700;10.770;2023-04-03T04:32:21;4.57;;;1.98;;
7703;SDS011;3894;49.700;10.770;2023-04-03T04:34:46;5.95;;;2.10;;
7703;SDS011;3894;49.700;10.770;2023-04-03T04:37:12;5.28;;;1.50;;
7703;SDS011;3894;49.700;10.770;2023-04-03T04:39:38;4.22;;;1.95;;
7703;SDS011;3894;49.700;10.770;2023-04-03T04:42:03;5.50;;;1.70;;
7703;SDS011;3894;49.700;10.770;2023-04-03T04:44:29;6.82;;;1.88;;
7703;SDS011;3894;49.700;10.770;2023-04-03T04:46:54;5.22;;;2.13;;
7703;SDS011;3894;49.700;10.770;2023-04-03T04:49:20;5.75;;;1.75;;
7703;SDS011;3894;49.700;10.770;2023-04-03T04:51:46;6.68;;;1.85;;
7703;SDS011;3894;49.700;10.770;2023-04-03T04:54:11;6.10;;;1.90;;
7703;SDS011;3894;49.700;10.770;2023-04-03T04:56:37;5.47;;;1.75;;
7703;SDS011;3894;49.700;10.770;2023-04-03T04:59:02;5.65;;;1.90;;
7703;SDS011;3894;49.700;10.770;2023-04-03T05:01:30;5.47;;;2.38;;
7703;SDS011;3894;49.700;10.770;2023-04-03T05:03:56;4.45;;;1.95;;
7703;SDS011;3894;49.700;10.770;2023-04-03T05:06:21;4.82;;;1.70;;
7703;SDS011;3894;49.700;10.770;2023-04-03T05:08:47;5.80;;;1.77;;
7703;SDS011;3894;49.700;10.770;2023-04-03T05:11:12;4.25;;;1.73;;
7703;SDS011;3894;49.700;10.770;2023-04-03T05:13:38;9.38;;;1.80;;
7703;SDS011;3894;49.700;10.770;2023-04-03T05:16:04;7.25;;;2.25;;
7703;SDS011;3894;49.700;10.770;2023-04-03T05:18:30;6.63;;;2.30;;
7703;SDS011;3894;49.700;10.770;2023-04-03T05:20:55;6.35;;;1.92;;
7703;SDS011;3894;49.700;10.770;2023-04-03T05:23:21;4.53;;;1.80;;
7703;SDS011;3894;49.700;10.770;2023-04-03T05:25:46;5.63;;;2.10;;
7703;SDS011;3894;49.700;10.770;2023-04-03T05:28:13;5.72;;;1.88;;
7703;SDS011;3894;49.700;10.770;2023-04-03T05:30:39;7.18;;;2.55;;
7703;SDS011;3894;49.700;10.770;2023-04-03T05:33:05;7.10;;;1.92;;
7703;SDS011;3894;49.700;10.770;2023-04-03T05:35:31;5.60;;;2.10;;
7703;SDS011;3894;49.700;10.770;2023-04-03T05:37:56;7.85;;;1.98;;
7703;SDS011;3894;49.700;10.770;2023-04-03T05:40:22;8.98;;;2.10;;
7703;SDS011;3894;49.700;10.770;2023-04-03T05:42:47;8.43;;;2.05;;
7703;SDS011;3894;49.700;10.770;2023-04-03T05:45:13;4.72;;;1.63;;
7703;SDS011;3894;49.700;10.770;2023-04-03T05:47:39;7.85;;;1.77;;
7703;SDS011;3894;49.700;10.770;2023-04-03T05:50:04;4.63;;;1.70;;
7703;SDS011;3894;49.700;10.770;2023-04-03T05:52:31;6.75;;;1.42;;
7703;SDS011;3894;49.700;10.770;2023-04-03T05:55:01;3.70;;;1.30;;
7703;SDS011;3894;49.700;10.770;2023-04-03T05:57:26;6.25;;;2.10;;
7703;SDS011;3894;49.700;10.770;2023-04-03T05:59:52;4.90;;;1.90;;
7703;SDS011;3894;49.700;10.770;2023-04-03T06:02:21;6.35;;;1.25;;
7703;SDS011;3894;49.700;10.770;2023-04-03T06:04:48;5.15;;;1.58;;
7703;SDS011;3894;49.700;10.770;2023-04-03T06:07:15;3.85;;;1.08;;
7703;SDS011;3894;49.700;10.770;2023-04-03T06:09:43;5.00;;;1.48;;
7703;SDS011;3894;49.700;10.770;2023-04-03T06:12:09;6.90;;;1.63;;
7703;SDS011;3894;49.700;10.770;2023-04-03T06:14:35;5.50;;;1.35;;
7703;SDS011;3894;49.700;10.770;2023-04-03T06:17:01;5.22;;;2.13;;
7703;SDS011;3894;49.700;10.770;2023-04-03T06:19:27;6.38;;;1.58;;
7703;SDS011;3894;49.700;10.770;2023-04-03T06:21:53;5.85;;;1.58;;
7703;SDS011;3894;49.700;10.770;2023-04-03T06:24:18;6.47;;;2.10;;
7703;SDS011;3894;49.700;10.770;2023-04-03T06:29:40;6.00;;;1.67;;
7703;SDS011;3894;49.700;10.770;2023-04-03T06:32:06;5.45;;;1.45;;
7703;SDS011;3894;49.700;10.770;2023-04-03T06:34:31;4.28;;;1.38;;
7703;SDS011;3894;49.700;10.770;2023-04-03T06:36:57;7.75;;;1.65;;
7703;SDS011;3894;49.700;10.770;2023-04-03T06:39:22;4.32;;;1.30;;
7703;SDS011;3894;49.700;10.770;2023-04-03T06:41:49;5.47;;;1.40;;
7703;SDS011;3894;49.700;10.770;2023-04-03T06:44:17;4.15;;;1.52;;
7703;SDS011;3894;49.700;10.770;2023-04-03T06:46:43;7.20;;;1.75;;
7703;SDS011;3894;49.700;10.770;2023-04-03T06:49:11;9.23;;;1.77;;
7703;SDS011;3894;49.700;10.770;2023-04-03T06:51:37;4.57;;;1.58;;
7703;SDS011;3894;49.700;10.770;2023-04-03T06:54:04;4.47;;;1.58;;
7703;SDS011;3894;49.700;10.770;2023-04-03T06:56:31;4.25;;;1.30;;
7703;SDS011;3894;49.700;10.770;2023-04-03T06:58:59;5.03;;;1.80;;
7703;SDS011;3894;49.700;10.770;2023-04-03T07:01:26;5.22;;;1.73;;
7703;SDS011;3894;49.700;10.770;2023-04-03T07:03:53;7.22;;;2.33;;
7703;SDS011;3894;49.700;10.770;2023-04-03T07:06:20;6.85;;;2.17;;
7703;SDS011;3894;49.700;10.770;2023-04-03T07:08:46;7.53;;;2.75;;
7703;SDS011;3894;49.700;10.770;2023-04-03T07:11:14;7.40;;;1.88;;
7703;SDS011;3894;49.700;10.770;2023-04-03T07:13:42;4.78;;;1.90;;
7703;SDS011;3894;49.700;10.770;2023-04-03T07:16:08;5.57;;;1.80;;
7703;SDS011;3894;49.700;10.770;2023-04-03T07:18:35;4.18;;;1.05;;
7703;SDS011;3894;49.700;10.770;2023-04-03T07:21:01;5.00;;;1.55;;
7703;SDS011;3894;49.700;10.770;2023-04-03T07:23:27;6.93;;;1.83;;
7703;SDS011;3894;49.700;10.770;2023-04-03T07:25:53;4.50;;;1.20;;
7703;SDS011;3894;49.700;10.770;2023-04-03T07:28:19;6.25;;;1.85;;
7703;SDS011;3894;49.700;10.770;2023-04-03T07:30:49;5.10;;;1.88;;
7703;SDS011;3894;49.700;10.770;2023-04-03T07:33:16;6.85;;;1.77;;
7703;SDS011;3894;49.700;10.770;2023-04-03T07:35:46;5.55;;;2.00;;
7703;SDS011;3894;49.700;10.770;2023-04-03T07:38:12;5.32;;;1.42;;
7703;SDS011;3894;49.700;10.770;2023-04-03T07:40:38;6.57;;;2.50;;
7703;SDS011;3894;49.700;10.770;2023-04-03T07:43:05;7.18;;;1.83;;
7703;SDS011;3894;49.700;10.770;2023-04-03T07:45:31;4.38;;;1.52;;
7703;SDS011;3894;49.700;10.770;2023-04-03T07:47:59;4.78;;;1.83;;
7703;SDS011;3894;49.700;10.770;2023-04-03T07:50:25;5.35;;;1.90;;
7703;SDS011;3894;49.700;10.770;2023-04-03T07:52:52;6.93;;;2.70;;
7703;SDS011;3894;49.700;10.770;2023-04-03T07:55:19;7.43;;;3.50;;
7703;SDS011;3894;49.700;10.770;2023-04-03T07:57:45;6.60;;;2.30;;
7703;SDS011;3894;49.700;10.770;2023-04-03T08:00:11;6.47;;;2.05;;
7703;SDS011;3894;49.700;10.770;2023-04-03T08:02:47;4.03;;;2.03;;
7703;SDS011;3894;49.700;10.770;2023-04-03T08:05:17;8.30;;;1.70;;
7703;SDS011;3894;49.700;10.770;2023-04-03T08:10:54;6.18;;;1.40;;
7703;SDS011;3894;49.700;10.770;2023-04-03T08:13:23;6.13;;;1.50;;
7703;SDS011;3894;49.700;10.770;2023-04-03T08:15:49;6.07;;;2.17;;
7703;SDS011;3894;49.700;10.770;2023-04-03T08:18:20;6.30;;;1.52;;
7703;SDS011;3894;49.700;10.770;2023-04-03T08:20:49;7.70;;;2.10;;
7703;SDS011;3894;49.700;10.770;2023-04-03T08:23:21;4.40;;;1.65;;
7703;SDS011;3894;49.700;10.770;2023-04-03T08:25:49;6.57;;;1.67;;
7703;SDS011;3894;49.700;10.770;2023-04-03T08:28:19;6.03;;;1.55;;
7703;SDS011;3894;49.700;10.770;2023-04-03T08:30:44;4.95;;;2.13;;
7703;SDS011;3894;49.700;10.770;2023-04-03T08:33:13;6.93;;;1.40;;
7703;SDS011;3894;49.700;10.770;2023-04-03T08:35:39;5.35;;;1.58;;
7703;SDS011;3894;49.700;10.770;2023-04-03T08:38:14;5.20;;;1.65;;
7703;SDS011;3894;49.700;10.770;2023-04-03T08:40:45;4.40;;;1.20;;
7703;SDS011;3894;49.700;10.770;2023-04-03T08:47:04;5.65;;;1.90;;
7703;SDS011;3894;49.700;10.770;2023-04-03T08:49:37;3.97;;;1.13;;
7703;SDS011;3894;49.700;10.770;2023-04-03T08:55:20;4.07;;;1.08;;
7703;SDS011;3894;49.700;10.770;2023-04-03T08:57:57;4.55;;;1.23;;
7703;SDS011;3894;49.700;10.770;2023-04-03T09:00:26;4.07;;;1.35;;
7703;SDS011;3894;49.700;10.770;2023-04-03T09:02:57;4.18;;;1.70;;
7703;SDS011;3894;49.700;10.770;2023-04-03T09:05:33;4.40;;;1.33;;
7703;SDS011;3894;49.700;10.770;2023-04-03T09:08:18;4.88;;;1.20;;
7703;SDS011;3894;49.700;10.770;2023-04-03T09:11:25;4.18;;;1.38;;
7703;SDS011;3894;49.700;10.770;2023-04-03T09:13:52;3.90;;;1.40;;
7703;SDS011;3894;49.700;10.770;2023-04-03T09:16:39;4.72;;;2.00;;
7703;SDS011;3894;49.700;10.770;2023-04-03T09:19:41;3.40;;;0.95;;
7703;SDS011;3894;49.700;10.770;2023-04-03T09:22:26;4.95;;;0.85;;
7703;SDS011;3894;49.700;10.770;2023-04-03T09:25:00;3.30;;;1.20;;
7703;SDS011;3894;49.700;10.770;2023-04-03T09:27:54;2.65;;;0.63;;
7703;SDS011;3894;49.700;10.770;2023-04-03T09:30:42;3.97;;;1.10;;
7703;SDS011;3894;49.700;10.770;2023-04-03T09:33:17;5.32;;;1.15;;
7703;SDS011;3894;49.700;10.770;2023-04-03T09:35:43;5.75;;;1.33;;
7703;SDS011;3894;49.700;10.770;2023-04-03T09:38:16;6.53;;;1.67;;
7703;SDS011;3894;49.700;10.770;2023-04-03T09:40:45;5.70;;;1.35;;
7703;SDS011;3894;49.700;10.770;2023-04-03T10:02:22;3.67;;;1.20;;
7703;SDS011;3894;49.700;10.770;2023-04-03T10:05:25;4.95;;;1.15;;
7703;SDS011;3894;49.700;10.770;2023-04-03T10:08:27;5.38;;;1.10;;
7703;SDS011;3894;49.700;10.770;2023-04-03T10:11:15;4.60;;;0.70;;
7703;SDS011;3894;49.700;10.770;2023-04-03T10:13:55;4.45;;;1.52;;
7703;SDS011;3894;49.700;10.770;2023-04-03T10:16:26;7.10;;;1.40;;
7703;SDS011;3894;49.700;10.770;2023-04-03T10:22:45;7.45;;;2.13;;
7703;SDS011;3894;49.700;10.770;2023-04-03T10:25:36;4.20;;;1.15;;
7703;SDS011;3894;49.700;10.770;2023-04-03T10:28:34;3.38;;;0.98;;
7703;SDS011;3894;49.700;10.770;2023-04-03T10:31:25;3.88;;;0.90;;
7703;SDS011;3894;49.700;10.770;2023-04-03T10:37:21;5.05;;;0.82;;
7703;SDS011;3894;49.700;10.770;2023-04-03T10:43:09;3.35;;;0.82;;
7703;SDS011;3894;49.700;10.770;2023-04-03T10:51:41;5.13;;;1.25;;
7703;SDS011;3894;49.700;10.770;2023-04-03T10:57:28;4.07;;;1.20;;
7703;SDS011;3894;49.700;10.770;2023-04-03T11:00:25;4.50;;;1.42;;
7703;SDS011;3894;49.700;10.770;2023-04-03T11:03:38;3.15;;;0.90;;
7703;SDS011;3894;49.700;10.770;2023-04-03T11:06:18;3.33;;;0.77;;
7703;SDS011;3894;49.700;10.770;2023-04-03T11:12:04;4.03;;;1.02;;
7703;SDS011;3894;49.700;10.770;2023-04-03T11:15:11;3.28;;;0.60;;
7703;SDS011;3894;49.700;10.770;2023-04-03T11:17:56;2.50;;;0.50;;
7703;SDS011;3894;49.700;10.770;2023-04-03T11:29:54;4.28;;;1.13;;
7703;SDS011;3894;49.700;10.770;2023-04-03T11:35:35;3.20;;;0.90;;
7703;SDS011;3894;49.700;10.770;2023-04-03T11:38:35;3.47;;;0.80;;
7703;SDS011;3894;49.700;10.770;2023-04-03T11:41:13;4.20;;;1.25;;
7703;SDS011;3894;49.700;10.770;2023-04-03T11:44:25;3.42;;;0.80;;
7703;SDS011;3894;49.700;10.770;2023-04-03T11:47:01;3.95;;;0.90;;
7703;SDS011;3894;49.700;10.770;2023-04-03T11:57:46;3.85;;;0.70;;
7703;SDS011;3894;49.700;10.770;2023-04-03T12:08:27;4.28;;;0.63;;
7703;SDS011;3894;49.700;10.770;2023-04-03T12:13:42;3.67;;;0.70;;
7703;SDS011;3894;49.700;10.770;2023-04-03T12:16:29;4.85;;;0.70;;
7703;SDS011;3894;49.700;10.770;2023-04-03T12:19:01;4.30;;;1.15;;
7703;SDS011;3894;49.700;10.770;2023-04-03T12:27:04;2.80;;;0.90;;
7703;SDS011;3894;49.700;10.770;2023-04-03T12:29:47;2.92;;;0.77;;
7703;SDS011;3894;49.700;10.770;2023-04-03T12:32:32;3.28;;;0.65;;
7703;SDS011;3894;49.700;10.770;2023-04-03T12:46:48;3.22;;;1.05;;
7703;SDS011;3894;49.700;10.770;2023-04-03T12:49:33;4.18;;;1.90;;
7703;SDS011;3894;49.700;10.770;2023-04-03T12:52:16;3.42;;;0.77;;
7703;SDS011;3894;49.700;10.770;2023-04-03T12:54:46;3.83;;;0.73;;
7703;SDS011;3894;49.700;10.770;2023-04-03T12:57:16;3.72;;;1.10;;
7703;SDS011;3894;49.700;10.770;2023-04-03T12:59:47;4.22;;;1.13;;
7703;SDS011;3894;49.700;10.770;2023-04-03T13:04:53;3.65;;;0.93;;
7703;SDS011;3894;49.700;10.770;2023-04-03T13:07:24;5.38;;;1.13;;
7703;SDS011;3894;49.700;10.770;2023-04-03T13:12:32;3.63;;;0.70;;
7703;SDS011;3894;49.700;10.770;2023-04-03T13:15:00;3.10;;;0.75;;
7703;SDS011;3894;49.700;10.770;2023-04-03T13:17:41;5.82;;;1.17;;
7703;SDS011;3894;49.700;10.770;2023-04-03T13:20:17;8.38;;;2.03;;
7703;SDS011;3894;49.700;10.770;2023-04-03T13:22:55;3.63;;;0.95;;
7703;SDS011;3894;49.700;10.770;2023-04-03T13:25:27;3.75;;;1.85;;
7703;SDS011;3894;49.700;10.770;2023-04-03T13:27:56;3.85;;;1.23;;
7703;SDS011;3894;49.700;10.770;2023-04-03T13:30:25;3.13;;;1.00;;
7703;SDS011;3894;49.700;10.770;2023-04-03T13:32:55;5.20;;;1.45;;
7703;SDS011;3894;49.700;10.770;2023-04-03T13:35:30;3.60;;;0.60;;
7703;SDS011;3894;49.700;10.770;2023-04-03T13:38:19;5.07;;;2.10;;
7703;SDS011;3894;49.700;10.770;2023-04-03T13:40:52;3.10;;;0.80;;
7703;SDS011;3894;49.700;10.770;2023-04-03T13:43:30;2.90;;;0.80;;
7703;SDS011;3894;49.700;10.770;2023-04-03T13:46:03;3.67;;;1.00;;
7703;SDS011;3894;49.700;10.770;2023-04-03T13:48:38;3.20;;;0.77;;
7703;SDS011;3894;49.700;10.770;2023-04-03T13:51:07;3.63;;;0.98;;
7703;SDS011;3894;49.700;10.770;2023-04-03T13:59:21;3.42;;;0.77;;
7703;SDS011;3894;49.700;10.770;2023-04-03T14:01:45;3.85;;;1.17;;
7703;SDS011;3894;49.700;10.770;2023-04-03T14:04:17;4.28;;;1.35;;
7703;SDS011;3894;49.700;10.770;2023-04-03T14:06:45;4.55;;;0.93;;
7703;SDS011;3894;49.700;10.770;2023-04-03T14:09:11;3.33;;;0.68;;
7703;SDS011;3894;49.700;10.770;2023-04-03T14:11:37;5.28;;;1.58;;
7703;SDS011;3894;49.700;10.770;2023-04-03T14:14:27;5.18;;;1.08;;
7703;SDS011;3894;49.700;10.770;2023-04-03T14:16:56;4.03;;;1.63;;
7703;SDS011;3894;49.700;10.770;2023-04-03T14:19:29;4.75;;;0.85;;
7703;SDS011;3894;49.700;10.770;2023-04-03T14:22:00;3.10;;;0.70;;
7703;SDS011;3894;49.700;10.770;2023-04-03T14:24:32;2.33;;;0.65;;
7703;SDS011;3894;49.700;10.770;2023-04-03T14:26:57;2.97;;;0.63;;
7703;SDS011;3894;49.700;10.770;2023-04-03T14:29:24;4.60;;;0.95;;
7703;SDS011;3894;49.700;10.770;2023-04-03T14:31:50;3.30;;;1.17;;
7703;SDS011;3894;49.700;10.770;2023-04-03T14:34:16;4.18;;;0.80;;
7703;SDS011;3894;49.700;10.770;2023-04-03T14:36:42;2.90;;;0.73;;
7703;SDS011;3894;49.700;10.770;2023-04-03T14:39:16;3.50;;;0.82;;
7703;SDS011;3894;49.700;10.770;2023-04-03T14:44:09;4.50;;;0.95;;
7703;SDS011;3894;49.700;10.770;2023-04-03T14:46:36;4.63;;;1.05;;
7703;SDS011;3894;49.700;10.770;2023-04-03T14:49:04;4.05;;;0.88;;
7703;SDS011;3894;49.700;10.770;2023-04-03T14:51:44;3.83;;;0.77;;
7703;SDS011;3894;49.700;10.770;2023-04-03T14:54:14;2.22;;;0.60;;
7703;SDS011;3894;49.700;10.770;2023-04-03T14:56:42;3.03;;;0.85;;
7703;SDS011;3894;49.700;10.770;2023-04-03T14:59:09;2.80;;;0.73;;
7703;SDS011;3894;49.700;10.770;2023-04-03T15:01:38;2.38;;;0.60;;
7703;SDS011;3894;49.700;10.770;2023-04-03T15:04:14;4.50;;;0.60;;
7703;SDS011;3894;49.700;10.770;2023-04-03T15:06:41;2.45;;;0.60;;
7703;SDS011;3894;49.700;10.770;2023-04-03T15:09:40;4.63;;;0.75;;
7703;SDS011;3894;49.700;10.770;2023-04-03T15:11:59;4.10;;;1.00;;
7703;SDS011;3894;49.700;10.770;2023-04-03T15:14:25;4.03;;;0.63;;
7703;SDS011;3894;49.700;10.770;2023-04-03T15:16:50;3.25;;;0.70;;
7703;SDS011;3894;49.700;10.770;2023-04-03T15:19:16;4.10;;;0.50;;
7703;SDS011;3894;49.700;10.770;2023-04-03T15:21:41;3.35;;;0.82;;
7703;SDS011;3894;49.700;10.770;2023-04-03T15:24:08;2.95;;;0.88;;
7703;SDS011;3894;49.700;10.770;2023-04-03T15:26:34;2.30;;;0.50;;
7703;SDS011;3894;49.700;10.770;2023-04-03T15:29:00;3.53;;;0.77;;
7703;SDS011;3894;49.700;10.770;2023-04-03T15:31:25;5.40;;;0.77;;
7703;SDS011;3894;49.700;10.770;2023-04-03T15:33:52;2.17;;;0.57;;
7703;SDS011;3894;49.700;10.770;2023-04-03T15:36:17;2.85;;;0.60;;
7703;SDS011;3894;49.700;10.770;2023-04-03T15:38:43;5.40;;;0.80;;
7703;SDS011;3894;49.700;10.770;2023-04-03T15:41:08;2.85;;;0.63;;
7703;SDS011;3894;49.700;10.770;2023-04-03T15:43:34;2.53;;;0.45;;
7703;SDS011;3894;49.700;10.770;2023-04-03T15:46:00;2.83;;;0.95;;
7703;SDS011;3894;49.700;10.770;2023-04-03T15:48:26;3.50;;;0.68;;
7703;SDS011;3894;49.700;10.770;2023-04-03T15:50:53;3.35;;;0.40;;
7703;SDS011;3894;49.700;10.770;2023-04-03T15:53:18;2.65;;;0.30;;
7703;SDS011;3894;49.700;10.770;2023-04-03T15:55:44;3.17;;;0.93;;
7703;SDS011;3894;49.700;10.770;2023-04-03T15:58:10;3.25;;;0.50;;
7703;SDS011;3894;49.700;10.770;2023-04-03T16:00:36;3.72;;;0.93;;
7703;SDS011;3894;49.700;10.770;2023-04-03T16:03:09;4.85;;;0.90;;
7703;SDS011;3894;49.700;10.770;2023-04-03T16:05:43;2.75;;;0.50;;
7703;SDS011;3894;49.700;10.770;2023-04-03T16:08:09;2.25;;;0.30;;
7703;SDS011;3894;49.700;10.770;2023-04-03T16:10:35;4.10;;;0.60;;
7703;SDS011;3894;49.700;10.770;2023-04-03T16:13:01;2.38;;;0.30;;
7703;SDS011;3894;49.700;10.770;2023-04-03T16:15:28;3.03;;;0.50;;
7703;SDS011;3894;49.700;10.770;2023-04-03T16:17:55;3.45;;;0.68;;
7703;SDS011;3894;49.700;10.770;2023-04-03T16:20:21;4.15;;;0.40;;
7703;SDS011;3894;49.700;10.770;2023-04-03T16:22:47;1.98;;;0.63;;
7703;SDS011;3894;49.700;10.770;2023-04-03T16:25:13;2.47;;;0.70;;
7703;SDS011;3894;49.700;10.770;2023-04-03T16:27:39;2.15;;;0.43;;
7703;SDS011;3894;49.700;10.770;2023-04-03T16:30:05;5.60;;;0.65;;
7703;SDS011;3894;49.700;10.770;2023-04-03T16:32:32;2.92;;;0.90;;
7703;SDS011;3894;49.700;10.770;2023-04-03T16:34:58;2.75;;;0.52;;
7703;SDS011;3894;49.700;10.770;2023-04-03T16:37:24;3.55;;;0.60;;
7703;SDS011;3894;49.700;10.770;2023-04-03T16:39:50;4.03;;;0.60;;
7703;SDS011;3894;49.700;10.770;2023-04-03T16:42:16;2.28;;;0.57;;
7703;SDS011;3894;49.700;10.770;2023-04-03T16:44:41;1.83;;;0.28;;
7703;SDS011;3894;49.700;10.770;2023-04-03T16:47:07;2.65;;;0.50;;
7703;SDS011;3894;49.700;10.770;2023-04-03T16:49:34;4.50;;;0.57;;
7703;SDS011;3894;49.700;10.770;2023-04-03T16:52:03;5.43;;;0.90;;
7703;SDS011;3894;49.700;10.770;2023-04-03T16:54:29;4.22;;;1.00;;
7703;SDS011;3894;49.700;10.770;2023-04-03T16:56:56;4.60;;;0.98;;
7703;SDS011;3894;49.700;10.770;2023-04-03T16:59:22;2.92;;;0.52;;
7703;SDS011;3894;49.700;10.770;2023-04-03T17:01:47;2.30;;;0.50;;
7703;SDS011;3894;49.700;10.770;2023-04-03T17:04:13;3.15;;;0.82;;
7703;SDS011;3894;49.700;10.770;2023-04-03T17:06:39;3.17;;;0.57;;
7703;SDS011;3894;49.700;10.770;2023-04-03T17:09:05;3.67;;;0.47;;
7703;SDS011;3894;49.700;10.770;2023-04-03T17:11:32;3.72;;;0.77;;
7703;SDS011;3894;49.700;10.770;2023-04-03T17:13:57;1.92;;;0.30;;
7703;SDS011;3894;49.700;10.770;2023-04-03T17:16:23;2.38;;;0.40;;
7703;SDS011;3894;49.700;10.770;2023-04-03T17:18:50;1.58;;;0.30;;